Time;durP1;ratioP1;P1;durP2;ratioP2;P2;SDS_P1;SDS_P2;PMS_P1;PMS_P2;Temp;Humidity;BMP_temperature;BMP_pressure;BME280_temperature;BME280_humidity;BME280_pressure;Samples;Min_cycle;Max_cycle;Signal;HPM_P1;HPM_P2
2021/04/26 00:01:04;;;;;;;5.20;2.33;;;7.20;30.40;;;;;;5084946;28;39304;-84
2021/04/26 00:03:34;;;;;;;3.97;2.10;;;7.10;30.50;;;;;;5060317;28;37971;-85
2021/04/26 00:06:01;;;;;;;2.70;2.10;;;7.20;30.50;;;;;;5071989;28;38247;-84
2021/04/26 00:08:28;;;;;;;3.50;2.73;;;7.20;30.70;;;;;;5072805;28;39400;-83
2021/04/26 00:10:55;;;;;;;2.93;1.90;;;7.20;30.80;;;;;;5058012;28;38004;-84
2021/04/26 00:13:23;;;;;;;3.10;2.07;;;7.10;30.70;;;;;;5062418;28;38127;-84
2021/04/26 00:15:50;;;;;;;3.60;2.10;;;7.00;31.10;;;;;;5069168;28;35666;-85
2021/04/26 00:18:19;;;;;;;3.70;2.30;;;6.90;31.40;;;;;;5067001;28;37830;-86
2021/04/26 00:20:46;;;;;;;3.20;2.23;;;6.80;31.50;;;;;;5062083;28;38004;-85
2021/04/26 00:23:13;;;;;;;5.87;2.40;;;6.80;31.70;;;;;;5058981;28;38172;-86
2021/04/26 00:25:40;;;;;;;2.33;2.07;;;6.70;32.30;;;;;;5077912;28;37721;-84
2021/04/26 00:28:08;;;;;;;3.50;2.70;;;6.70;32.40;;;;;;5055386;28;39821;-85
2021/04/26 00:30:35;;;;;;;3.50;2.27;;;6.70;32.30;;;;;;5072808;28;38629;-84
2021/04/26 00:33:05;;;;;;;2.47;2.00;;;6.80;32.40;;;;;;5057042;28;37570;-85
2021/04/26 00:35:33;;;;;;;2.30;1.83;;;6.70;32.60;;;;;;5053976;28;36214;-85
2021/04/26 00:38:00;;;;;;;4.20;2.43;;;6.60;32.80;;;;;;5068188;28;39569;-83
2021/04/26 00:40:27;;;;;;;2.40;1.70;;;6.70;32.90;;;;;;5058522;28;38069;-84
2021/04/26 00:42:54;;;;;;;2.57;2.00;;;6.60;33.00;;;;;;5066662;28;37018;-83
2021/04/26 00:45:23;;;;;;;2.90;2.53;;;6.50;33.20;;;;;;5071309;28;38034;-84
2021/04/26 00:47:50;;;;;;;2.50;1.90;;;6.50;33.70;;;;;;5055002;28;39940;-85
2021/04/26 00:50:20;;;;;;;5.07;2.20;;;6.40;33.70;;;;;;5068051;28;39267;-84
2021/04/26 00:52:49;;;;;;;3.80;2.07;;;6.40;33.80;;;;;;5067088;28;37432;-84
2021/04/26 00:55:18;;;;;;;3.50;2.43;;;6.30;34.00;;;;;;5077386;28;37773;-85
2021/04/26 00:57:45;;;;;;;4.80;2.37;;;6.30;35.00;;;;;;5055698;28;38394;-85
2021/04/26 01:00:14;;;;;;;4.23;2.43;;;6.30;34.70;;;;;;5073035;28;39188;-86
2021/04/26 01:02:43;;;;;;;2.43;2.10;;;6.30;34.70;;;;;;5046808;28;36894;-84
2021/04/26 01:05:13;;;;;;;2.30;2.10;;;6.40;34.90;;;;;;5063689;28;35759;-85
2021/04/26 01:07:43;;;;;;;4.10;2.37;;;6.30;35.10;;;;;;5051450;28;39956;-84
2021/04/26 01:10:16;;;;;;;4.17;2.10;;;6.20;35.40;;;;;;5052817;28;37825;-85
2021/04/26 01:13:18;;;;;;;5.93;2.70;;;6.20;35.30;;;;;;5064649;28;38171;-85
2021/04/26 01:15:52;;;;;;;4.43;2.77;;;6.10;35.70;;;;;;5051804;28;37126;-86
2021/04/26 01:18:25;;;;;;;2.73;2.43;;;6.10;36.00;;;;;;5060037;28;39537;-85
2021/04/26 01:21:18;;;;;;;3.07;2.77;;;6.10;36.30;;;;;;5051219;28;38957;-85
2021/04/26 01:24:20;;;;;;;3.03;2.30;;;6.10;36.10;;;;;;5054787;28;38675;-86
2021/04/26 01:27:09;;;;;;;2.97;2.67;;;5.90;36.30;;;;;;5038579;28;36071;-84
2021/04/26 01:30:07;;;;;;;4.10;2.70;;;5.90;36.50;;;;;;5044420;28;39243;-87
2021/04/26 01:32:56;;;;;;;3.63;2.93;;;6.00;36.50;;;;;;5066642;28;37847;-85
2021/04/26 01:35:26;;;;;;;4.03;2.83;;;5.90;36.50;;;;;;5062378;28;37129;-85
2021/04/26 01:38:00;;;;;;;4.63;2.77;;;5.80;36.70;;;;;;5065758;28;36112;-84
2021/04/26 01:40:33;;;;;;;5.07;2.70;;;5.80;36.90;;;;;;5064156;28;39785;-86
2021/04/26 01:43:14;;;;;;;5.07;2.40;;;5.80;37.10;;;;;;5051402;28;39053;-86
2021/04/26 01:45:45;;;;;;;5.00;3.00;;;5.80;37.10;;;;;;5056288;28;39151;-86
2021/04/26 01:48:16;;;;;;;4.57;2.93;;;5.70;37.20;;;;;;5057934;28;36733;-84
2021/04/26 01:50:48;;;;;;;3.57;2.77;;;5.60;37.50;;;;;;5075223;28;38393;-86
2021/04/26 01:53:16;;;;;;;4.00;2.60;;;5.60;37.50;;;;;;5052619;28;38264;-86
2021/04/26 01:55:44;;;;;;;4.27;2.73;;;5.60;37.60;;;;;;5078315;28;38483;-85
2021/04/26 01:58:16;;;;;;;3.93;3.30;;;5.60;37.70;;;;;;5074632;28;37179;-86
2021/04/26 02:00:44;;;;;;;4.63;2.90;;;5.50;38.00;;;;;;5057118;28;38646;-84
2021/04/26 02:03:13;;;;;;;6.93;3.03;;;5.40;38.20;;;;;;5057021;28;37413;-84
2021/04/26 02:05:55;;;;;;;3.67;3.23;;;5.40;38.80;;;;;;5056433;28;37648;-84
2021/04/26 02:08:24;;;;;;;4.00;3.00;;;5.40;38.90;;;;;;5052103;28;36453;-85
2021/04/26 02:10:52;;;;;;;7.30;3.73;;;5.30;39.20;;;;;;5078440;28;38393;-84
2021/04/26 02:13:25;;;;;;;4.30;3.20;;;5.40;39.50;;;;;;5053936;28;38008;-83
2021/04/26 02:15:56;;;;;;;5.80;3.70;;;5.30;39.60;;;;;;5064950;28;37212;-83
2021/04/26 02:18:24;;;;;;;6.27;3.70;;;5.30;39.40;;;;;;5053854;28;36950;-84
2021/04/26 02:20:52;;;;;;;5.67;3.83;;;5.30;40.20;;;;;;5052005;28;38509;-84
2021/04/26 02:23:21;;;;;;;9.03;4.17;;;5.30;40.00;;;;;;5048457;28;38143;-84
2021/04/26 02:25:49;;;;;;;5.50;4.03;;;5.30;40.00;;;;;;5051045;28;37032;-84
2021/04/26 02:28:18;;;;;;;6.60;3.93;;;5.20;40.20;;;;;;5056684;28;35996;-84
2021/04/26 02:30:45;;;;;;;4.07;3.67;;;5.20;40.10;;;;;;5054520;28;38538;-85
2021/04/26 02:33:14;;;;;;;7.23;3.80;;;5.20;40.60;;;;;;5046229;28;38056;-84
2021/04/26 02:36:01;;;;;;;4.90;3.80;;;5.10;40.70;;;;;;5046124;28;37369;-84
2021/04/26 02:38:32;;;;;;;5.97;4.27;;;5.10;40.80;;;;;;5061365;28;35886;-85
2021/04/26 02:41:05;;;;;;;10.37;5.37;;;5.10;40.90;;;;;;5061205;28;37068;-83
2021/04/26 02:43:37;;;;;;;3.70;3.33;;;5.10;41.00;;;;;;5046343;28;38164;-83
2021/04/26 02:46:07;;;;;;;6.27;4.30;;;5.10;41.10;;;;;;5053166;28;37061;-83
2021/04/26 02:48:36;;;;;;;5.17;3.80;;;5.10;41.10;;;;;;5053705;28;36099;-83
2021/04/26 02:51:06;;;;;;;9.17;3.90;;;5.10;41.10;;;;;;5047812;28;39530;-83
2021/04/26 02:53:36;;;;;;;5.60;4.10;;;5.00;41.10;;;;;;5053374;28;38226;-83
2021/04/26 02:56:07;;;;;;;7.37;4.43;;;5.00;41.30;;;;;;5067744;28;39156;-84
2021/04/26 02:58:38;;;;;;;4.87;3.97;;;4.90;41.40;;;;;;5068946;28;37775;-84
2021/04/26 03:01:16;;;;;;;11.90;4.70;;;4.90;41.30;;;;;;5075085;28;40363;-83
2021/04/26 03:04:19;;;;;;;8.07;4.00;;;4.90;41.60;;;;;;4989533;28;39241;-83
2021/04/26 03:06:50;;;;;;;6.30;4.37;;;4.80;41.50;;;;;;5056100;28;38517;-83
2021/04/26 03:09:28;;;;;;;6.40;5.00;;;4.90;41.70;;;;;;5053208;28;36346;-83
2021/04/26 03:11:59;;;;;;;5.63;3.93;;;4.80;41.60;;;;;;5057648;28;38348;-83
2021/04/26 03:14:39;;;;;;;6.20;4.83;;;4.70;42.10;;;;;;5066984;28;38052;-83
2021/04/26 03:17:06;;;;;;;6.27;4.90;;;4.80;42.00;;;;;;5060375;28;37715;-84
2021/04/26 03:19:34;;;;;;;5.83;4.37;;;4.80;41.80;;;;;;5051114;28;35994;-83
2021/04/26 03:22:03;;;;;;;8.57;5.10;;;4.80;41.90;;;;;;5049992;28;38886;-84
2021/04/26 03:24:34;;;;;;;6.20;4.83;;;4.80;42.00;;;;;;5052536;28;39009;-84
2021/04/26 03:27:02;;;;;;;6.90;4.63;;;4.70;42.60;;;;;;5043446;28;37536;-84
2021/04/26 03:29:31;;;;;;;5.90;4.67;;;4.70;42.10;;;;;;5050208;28;35796;-85
2021/04/26 03:31:59;;;;;;;6.53;4.50;;;4.70;42.00;;;;;;5065988;28;39597;-84
2021/04/26 03:34:33;;;;;;;8.50;4.30;;;4.70;42.00;;;;;;5054123;28;39185;-84
2021/04/26 03:37:02;;;;;;;6.10;4.90;;;4.60;42.10;;;;;;5051700;28;37809;-84
2021/04/26 03:39:31;;;;;;;7.30;4.83;;;4.60;42.30;;;;;;5047788;28;35805;-84
2021/04/26 03:42:01;;;;;;;8.73;4.40;;;4.60;42.40;;;;;;5050580;28;39564;-84
2021/04/26 03:44:33;;;;;;;6.80;4.67;;;4.50;42.40;;;;;;5054583;28;38238;-84
2021/04/26 03:47:23;;;;;;;7.60;4.70;;;4.60;42.30;;;;;;5050944;28;36679;-84
2021/04/26 03:50:10;;;;;;;6.70;5.50;;;4.50;42.30;;;;;;5068732;28;38568;-84
2021/04/26 03:52:56;;;;;;;6.00;4.57;;;4.50;42.30;;;;;;5072887;28;41417;-83
2021/04/26 03:55:42;;;;;;;6.33;4.47;;;4.50;42.40;;;;;;5064842;28;40082;-85
2021/04/26 03:58:10;;;;;;;18.20;6.03;;;4.40;42.30;;;;;;5044551;28;38404;-84
2021/04/26 04:00:37;;;;;;;6.53;5.47;;;4.30;42.60;;;;;;5053258;28;35831;-84
2021/04/26 04:03:08;;;;;;;6.40;5.10;;;4.30;42.50;;;;;;5051255;28;39708;-84
2021/04/26 04:05:37;;;;;;;6.10;5.03;;;4.30;42.60;;;;;;5042405;28;38670;-84
2021/04/26 04:08:25;;;;;;;9.40;5.13;;;4.30;42.60;;;;;;5037338;28;39096;-84
2021/04/26 04:11:11;;;;;;;6.63;5.10;;;4.30;42.40;;;;;;5072906;28;37556;-85
2021/04/26 04:13:47;;;;;;;13.77;6.17;;;4.30;42.30;;;;;;5066205;28;39811;-85
2021/04/26 04:16:14;;;;;;;6.00;5.00;;;4.30;42.30;;;;;;5058309;28;38516;-85
2021/04/26 04:18:42;;;;;;;8.17;5.70;;;4.40;42.20;;;;;;5054160;28;37676;-85
2021/04/26 04:21:09;;;;;;;10.37;5.70;;;4.30;42.30;;;;;;5062051;28;36881;-85
2021/04/26 04:23:40;;;;;;;6.93;5.20;;;4.20;42.40;;;;;;5055955;28;39309;-84
2021/04/26 04:26:08;;;;;;;6.77;5.37;;;4.20;42.30;;;;;;5048678;28;37998;-84
2021/04/26 04:28:42;;;;;;;6.90;5.40;;;4.20;42.30;;;;;;5048343;28;37963;-84
2021/04/26 04:31:25;;;;;;;7.60;5.03;;;4.30;42.10;;;;;;5050694;28;36792;-84
2021/04/26 04:34:15;;;;;;;7.77;5.00;;;4.20;42.10;;;;;;5065329;28;39637;-83
2021/04/26 04:37:01;;;;;;;11.90;5.70;;;4.20;41.90;;;;;;5071735;28;40296;-84
2021/04/26 04:39:48;;;;;;;9.23;4.30;;;4.20;41.60;;;;;;5063768;28;39940;-83
2021/04/26 04:42:42;;;;;;;8.03;5.13;;;4.20;41.80;;;;;;5045711;28;38177;-83
2021/04/26 04:45:10;;;;;;;7.03;4.90;;;4.20;41.60;;;;;;5050820;28;39361;-84
2021/04/26 04:47:57;;;;;;;9.50;5.23;;;4.20;41.60;;;;;;5067178;28;39732;-83
2021/04/26 04:50:26;;;;;;;6.57;4.60;;;4.10;41.70;;;;;;5054557;28;38507;-83
2021/04/26 04:52:54;;;;;;;6.53;4.90;;;4.20;41.80;;;;;;5053207;28;38422;-83
2021/04/26 04:55:22;;;;;;;6.87;4.60;;;4.20;41.80;;;;;;5052065;28;40288;-84
2021/04/26 04:57:50;;;;;;;13.00;5.43;;;4.30;41.60;;;;;;5073479;28;39164;-84
2021/04/26 05:00:18;;;;;;;10.07;5.10;;;4.40;41.60;;;;;;5056390;28;36868;-83
2021/04/26 05:03:10;;;;;;;6.77;4.53;;;4.50;41.10;;;;;;5053846;28;38169;-83
2021/04/26 05:05:56;;;;;;;11.53;5.47;;;4.60;41.10;;;;;;5073577;28;41264;-84
2021/04/26 05:08:53;;;;;;;8.43;5.27;;;4.80;41.30;;;;;;5007270;28;39566;-83
2021/04/26 05:11:47;;;;;;;5.90;4.60;;;5.10;40.50;;;;;;5041144;28;39030;-83
2021/04/26 05:14:38;;;;;;;7.60;4.87;;;5.30;39.10;;;;;;5060679;28;36840;-85
2021/04/26 05:17:05;;;;;;;5.70;4.07;;;5.50;39.10;;;;;;5071631;28;39501;-84
2021/04/26 05:19:33;;;;;;;6.40;3.93;;;5.40;38.30;;;;;;5068952;28;39069;-83
2021/04/26 05:22:01;;;;;;;8.20;4.53;;;5.60;38.60;;;;;;5056632;28;38451;-85
2021/04/26 05:24:31;;;;;;;5.43;4.03;;;5.70;38.30;;;;;;5046541;28;36936;-85
2021/04/26 05:27:00;;;;;;;5.80;3.80;;;5.80;37.70;;;;;;5080944;28;39871;-85
2021/04/26 05:29:27;;;;;;;6.03;3.77;;;6.00;37.80;;;;;;5048450;28;37785;-84
2021/04/26 05:31:56;;;;;;;8.67;4.40;;;6.70;37.80;;;;;;5048768;28;38927;-84
2021/04/26 05:34:23;;;;;;;8.07;3.40;;;8.00;35.80;;;;;;5071314;28;36663;-84
2021/04/26 05:36:52;;;;;;;6.50;3.70;;;10.00;30.80;;;;;;5058886;28;39237;-84
2021/04/26 05:39:21;;;;;;;4.33;3.13;;;11.90;27.50;;;;;;5059580;28;38323;-84
2021/04/26 05:41:49;;;;;;;7.77;3.73;;;12.80;26.20;;;;;;5034162;28;38720;-85
2021/04/26 05:44:17;;;;;;;8.80;4.47;;;13.50;25.10;;;;;;5039409;28;37557;-85
2021/04/26 05:47:00;;;;;;;7.03;3.53;;;13.60;24.60;;;;;;5024370;28;38844;-85
2021/04/26 05:49:27;;;;;;;9.63;4.13;;;13.50;24.90;;;;;;5028555;28;38002;-86
2021/04/26 05:51:54;;;;;;;3.97;3.43;;;13.70;24.70;;;;;;5040760;28;38645;-85
2021/04/26 05:54:21;;;;;;;8.20;4.50;;;14.00;24.30;;;;;;5045018;28;37083;-84
2021/04/26 05:56:48;;;;;;;4.50;3.60;;;14.90;23.50;;;;;;5050531;28;39358;-85
2021/04/26 05:59:15;;;;;;;5.53;5.03;;;15.90;22.40;;;;;;5041421;28;39707;-85
2021/04/26 06:01:43;;;;;;;6.40;4.10;;;16.60;21.60;;;;;;5055190;28;39048;-86
2021/04/26 06:04:10;;;;;;;3.53;3.23;;;18.00;21.10;;;;;;5051166;28;37245;-85
2021/04/26 06:06:38;;;;;;;5.47;3.93;;;19.50;19.10;;;;;;5022336;28;38385;-84
2021/04/26 06:09:06;;;;;;;5.33;3.50;;;20.50;18.70;;;;;;5051255;28;39503;-84
2021/04/26 06:11:33;;;;;;;6.70;3.50;;;21.40;17.80;;;;;;5032451;28;37207;-86
2021/04/26 06:14:00;;;;;;;8.30;7.40;;;21.80;17.50;;;;;;5052490;28;37475;-87
2021/04/26 06:16:27;;;;;;;4.67;3.33;;;22.60;17.40;;;;;;5050860;28;40707;-86
2021/04/26 06:18:55;;;;;;;7.20;3.53;;;23.50;16.60;;;;;;5054258;28;39334;-84
2021/04/26 06:21:22;;;;;;;18.73;6.60;;;24.60;16.10;;;;;;5032614;28;38541;-86
2021/04/26 06:23:49;;;;;;;11.70;4.47;;;25.70;15.50;;;;;;5045431;28;38014;-86
2021/04/26 06:26:16;;;;;;;43.10;11.30;;;26.30;14.80;;;;;;5025881;28;38848;-84
2021/04/26 06:28:43;;;;;;;5.73;4.50;;;26.90;14.20;;;;;;5031838;28;37686;-83
2021/04/26 06:31:10;;;;;;;24.53;6.00;;;27.80;13.30;;;;;;5036428;28;39388;-83
2021/04/26 06:33:37;;;;;;;17.17;6.50;;;28.00;13.70;;;;;;5045150;28;36871;-83
2021/04/26 06:36:06;;;;;;;10.80;4.20;;;29.20;12.90;;;;;;5015266;28;39820;-82
2021/04/26 06:38:33;;;;;;;5.00;3.87;;;29.30;12.00;;;;;;5047541;28;37774;-83
2021/04/26 06:41:00;;;;;;;5.70;4.40;;;28.90;12.00;;;;;;5068897;28;38572;-83
2021/04/26 06:43:27;;;;;;;6.20;3.70;;;28.60;12.10;;;;;;5072244;28;37446;-82
2021/04/26 06:45:55;;;;;;;6.00;4.17;;;28.20;12.00;;;;;;5039994;28;38217;-83
2021/04/26 06:48:23;;;;;;;9.73;4.87;;;27.40;12.00;;;;;;5054391;28;39022;-82
2021/04/26 06:50:51;;;;;;;5.67;4.07;;;26.70;12.50;;;;;;5061544;28;38597;-84
2021/04/26 06:53:19;;;;;;;7.30;4.60;;;26.20;12.70;;;;;;5064415;28;38071;-84
2021/04/26 06:55:46;;;;;;;9.80;4.90;;;26.40;12.60;;;;;;5064118;28;39455;-84
2021/04/26 06:58:13;;;;;;;5.77;4.10;;;27.40;12.90;;;;;;5061117;28;39396;-84
2021/04/26 07:00:40;;;;;;;7.37;3.80;;;28.40;11.80;;;;;;5056746;28;38470;-83
2021/04/26 07:03:07;;;;;;;5.57;3.87;;;29.70;11.60;;;;;;5040123;28;37006;-84
2021/04/26 07:05:34;;;;;;;5.73;3.80;;;31.00;10.80;;;;;;5056081;28;38251;-84
2021/04/26 07:08:02;;;;;;;7.93;4.07;;;31.10;10.30;;;;;;5051651;28;38770;-86
2021/04/26 07:10:30;;;;;;;6.17;4.07;;;31.50;10.10;;;;;;5054921;28;37804;-85
2021/04/26 07:12:57;;;;;;;4.33;3.83;;;31.80;9.90;;;;;;5055189;28;37375;-87
2021/04/26 07:15:24;;;;;;;4.30;3.90;;;31.70;9.60;;;;;;5067692;28;39281;-85
2021/04/26 07:17:53;;;;;;;4.17;3.80;;;31.50;9.50;;;;;;5067238;28;39589;-85
2021/04/26 07:20:20;;;;;;;6.13;4.60;;;31.20;9.70;;;;;;5066384;28;37572;-84
2021/04/26 07:22:47;;;;;;;4.33;3.83;;;30.90;9.60;;;;;;5065781;28;36780;-84
2021/04/26 07:25:15;;;;;;;4.80;4.40;;;30.50;10.00;;;;;;5049228;28;38374;-84
2021/04/26 07:27:43;;;;;;;5.43;4.23;;;30.10;9.80;;;;;;5078997;28;39555;-86
2021/04/26 07:30:11;;;;;;;7.10;4.40;;;30.70;10.00;;;;;;5083391;28;39065;-85
2021/04/26 07:32:40;;;;;;;10.60;4.50;;;31.40;9.50;;;;;;5059299;28;37517;-87
2021/04/26 07:35:12;;;;;;;6.20;4.60;;;32.00;9.30;;;;;;5076065;28;40149;-82
2021/04/26 07:37:39;;;;;;;4.50;4.10;;;31.60;8.90;;;;;;5064470;28;39679;-86
2021/04/26 07:40:09;;;;;;;5.10;3.90;;;31.30;8.80;;;;;;5053134;28;37425;-86
2021/04/26 07:42:36;;;;;;;4.70;3.90;;;31.10;8.80;;;;;;5058216;28;35894;-85
2021/04/26 07:45:05;;;;;;;6.20;4.73;;;31.00;9.00;;;;;;5071928;28;40621;-83
2021/04/26 07:47:33;;;;;;;4.87;4.40;;;31.10;9.00;;;;;;5086520;28;39528;-84
2021/04/26 07:50:01;;;;;;;4.53;3.90;;;31.80;9.10;;;;;;5080512;28;38291;-87
2021/04/26 07:52:36;;;;;;;5.00;4.27;;;33.10;8.50;;;;;;5085100;28;37364;-83
2021/04/26 07:55:04;;;;;;;6.63;4.57;;;33.00;7.90;;;;;;5088475;28;40428;-84
2021/04/26 07:57:32;;;;;;;4.77;4.10;;;32.60;8.10;;;;;;5089575;28;40438;-82
2021/04/26 08:00:03;;;;;;;7.10;4.70;;;32.80;8.20;;;;;;5084027;28;39703;-85
2021/04/26 08:02:35;;;;;;;5.10;4.60;;;32.80;8.10;;;;;;5072182;28;37008;-85
2021/04/26 08:05:03;;;;;;;4.70;4.20;;;32.80;8.30;;;;;;5068123;28;40513;-84
2021/04/26 08:07:30;;;;;;;5.83;4.27;;;33.70;8.30;;;;;;5070164;28;37827;-85
2021/04/26 08:09:57;;;;;;;5.50;4.10;;;34.30;7.30;;;;;;5050473;28;38427;-84
2021/04/26 08:12:24;;;;;;;5.97;4.10;;;34.10;7.50;;;;;;5073352;28;37151;-85
2021/04/26 08:14:52;;;;;;;5.43;4.07;;;33.80;7.80;;;;;;5061770;28;40017;-84
2021/04/26 08:17:19;;;;;;;4.33;3.93;;;34.20;7.20;;;;;;5060854;28;39852;-83
2021/04/26 08:19:47;;;;;;;4.03;3.73;;;34.90;7.30;;;;;;5066405;28;38587;-84
2021/04/26 08:22:14;;;;;;;5.10;4.23;;;35.20;7.50;;;;;;5064057;28;37126;-84
2021/04/26 08:24:41;;;;;;;11.40;4.57;;;34.50;7.00;;;;;;5071016;28;40118;-83
2021/04/26 08:27:10;;;;;;;8.40;4.80;;;33.90;7.50;;;;;;5056482;28;39323;-84
2021/04/26 08:29:37;;;;;;;4.77;4.27;;;34.30;7.00;;;;;;5072349;28;38772;-84
2021/04/26 08:32:05;;;;;;;4.77;4.07;;;34.10;7.20;;;;;;5067740;28;35807;-83
2021/04/26 08:34:32;;;;;;;5.40;4.93;;;34.00;7.10;;;;;;5062191;28;40965;-84
2021/04/26 08:37:00;;;;;;;8.63;4.53;;;34.10;7.00;;;;;;5056045;28;37786;-83
2021/04/26 08:39:27;;;;;;;5.23;3.90;;;34.10;7.40;;;;;;5051793;28;39794;-88
2021/04/26 08:41:57;;;;;;;6.60;4.73;;;33.80;7.40;;;;;;5066575;28;36187;-85
2021/04/26 08:44:24;;;;;;;4.93;4.43;;;34.60;6.90;;;;;;5051334;28;38098;-85
2021/04/26 08:46:51;;;;;;;6.17;4.40;;;35.10;6.80;;;;;;5049200;28;38927;-89
2021/04/26 08:49:20;;;;;;;5.30;4.47;;;34.70;6.80;;;;;;5068751;28;38522;-87
2021/04/26 08:51:48;;;;;;;4.40;4.00;;;35.20;7.00;;;;;;5064846;28;35866;-88
2021/04/26 08:54:17;;;;;;;7.37;4.60;;;34.50;6.80;;;;;;5060814;28;40315;-85
2021/04/26 08:56:45;;;;;;;5.27;4.53;;;34.80;7.10;;;;;;5051703;28;37669;-85
2021/04/26 08:59:13;;;;;;;8.37;4.90;;;34.50;7.00;;;;;;5063117;28;38238;-86
2021/04/26 09:01:40;;;;;;;9.00;5.17;;;34.10;6.90;;;;;;5039619;28;35844;-86
2021/04/26 09:04:09;;;;;;;5.10;4.70;;;34.30;7.00;;;;;;5059757;28;40000;-85
2021/04/26 09:06:53;;;;;;;5.13;4.53;;;34.80;7.20;;;;;;5062105;28;39142;-85
2021/04/26 09:09:41;;;;;;;6.70;4.17;;;35.70;6.50;;;;;;5043186;28;38175;-84
2021/04/26 09:12:11;;;;;;;6.67;5.03;;;35.20;6.70;;;;;;5064914;28;37211;-85
2021/04/26 09:14:49;;;;;;;5.97;4.67;;;33.90;6.90;;;;;;5058053;28;40544;-84
2021/04/26 09:17:31;;;;;;;4.47;3.93;;;34.30;7.20;;;;;;5066268;28;40124;-84
2021/04/26 09:20:17;;;;;;;4.50;4.10;;;34.20;7.10;;;;;;5056940;28;38466;-85
2021/04/26 09:22:47;;;;;;;5.23;4.73;;;34.80;6.80;;;;;;5058360;28;37743;-87
2021/04/26 09:25:30;;;;;;;6.17;4.40;;;35.50;6.40;;;;;;5055857;28;38197;-88
2021/04/26 09:28:03;;;;;;;5.03;4.20;;;35.50;6.30;;;;;;5064330;28;38386;-86
2021/04/26 09:30:52;;;;;;;5.03;4.53;;;34.90;6.30;;;;;;5063250;28;38351;-84
2021/04/26 09:33:27;;;;;;;4.50;4.10;;;33.20;6.50;;;;;;5067180;28;35902;-84
2021/04/26 09:36:00;;;;;;;4.93;4.47;;;33.10;7.90;;;;;;5055130;28;40756;-84
2021/04/26 09:38:29;;;;;;;5.40;4.33;;;32.70;6.80;;;;;;5072759;28;38677;-83
2021/04/26 09:41:25;;;;;;;7.33;4.67;;;32.30;7.60;;;;;;5043476;28;37770;-83
2021/04/26 09:44:07;;;;;;;5.83;4.70;;;31.90;7.30;;;;;;5041505;28;36064;-84
2021/04/26 09:46:42;;;;;;;7.40;4.30;;;31.60;7.80;;;;;;5072279;28;40251;-84
2021/04/26 09:49:11;;;;;;;5.30;3.70;;;32.40;7.20;;;;;;5046252;28;37955;-84
2021/04/26 09:51:40;;;;;;;5.10;4.27;;;31.50;7.10;;;;;;5073522;28;38498;-85
2021/04/26 09:54:08;;;;;;;4.60;4.03;;;30.90;7.40;;;;;;5071787;28;37295;-85
2021/04/26 09:56:40;;;;;;;4.40;3.93;;;31.00;7.00;;;;;;5054058;28;38351;-86
2021/04/26 09:59:10;;;;;;;4.73;3.90;;;31.30;7.70;;;;;;5072162;28;39139;-86
2021/04/26 10:01:38;;;;;;;7.77;4.60;;;31.10;7.20;;;;;;5046600;28;37115;-85
2021/04/26 10:04:10;;;;;;;6.77;3.87;;;31.10;7.70;;;;;;5072767;28;38470;-84
2021/04/26 10:06:38;;;;;;;5.60;3.90;;;31.40;7.90;;;;;;5074667;28;38997;-84
2021/04/26 10:09:08;;;;;;;4.33;3.40;;;31.20;7.70;;;;;;5059388;28;39331;-85
2021/04/26 10:11:37;;;;;;;5.03;4.13;;;30.40;6.70;;;;;;5051361;28;37216;-84
2021/04/26 10:14:06;;;;;;;4.70;3.53;;;28.60;7.70;;;;;;5050475;28;36257;-84
2021/04/26 10:16:44;;;;;;;4.23;3.83;;;28.50;8.90;;;;;;5045045;28;40173;-84
2021/04/26 10:19:14;;;;;;;5.83;4.80;;;28.80;6.60;;;;;;5057181;28;39218;-85
2021/04/26 10:21:42;;;;;;;4.67;3.60;;;30.60;8.00;;;;;;5064197;28;39487;-83
2021/04/26 10:24:16;;;;;;;5.77;3.77;;;32.10;6.70;;;;;;5052791;28;36280;-84
2021/04/26 10:26:55;;;;;;;3.30;3.00;;;32.30;5.10;;;;;;5067522;28;39862;-83
2021/04/26 10:29:25;;;;;;;7.07;3.77;;;31.50;5.90;;;;;;5047290;28;38094;-84
2021/04/26 10:32:04;;;;;;;6.33;4.40;;;30.80;7.00;;;;;;5037212;28;38168;-84
2021/04/26 10:34:33;;;;;;;7.83;4.60;;;29.60;8.00;;;;;;5068244;28;37119;-84
2021/04/26 10:37:03;;;;;;;4.40;3.80;;;29.80;8.00;;;;;;5042897;28;38760;-84
2021/04/26 10:39:32;;;;;;;7.23;3.67;;;30.30;7.90;;;;;;5069306;28;39763;-84
2021/04/26 10:42:09;;;;;;;5.83;4.17;;;31.10;7.90;;;;;;5045655;28;37998;-85
2021/04/26 10:44:54;;;;;;;4.80;3.57;;;31.40;7.70;;;;;;5061574;28;37750;-84
2021/04/26 10:47:30;;;;;;;4.73;4.33;;;31.50;7.10;;;;;;5068523;28;39396;-86
2021/04/26 10:50:30;;;;;;;5.27;4.77;;;30.70;7.40;;;;;;5059981;28;38984;-86
2021/04/26 10:52:59;;;;;;;4.43;4.03;;;29.40;8.00;;;;;;5064216;28;38975;-87
2021/04/26 10:55:54;;;;;;;5.40;4.13;;;28.80;8.20;;;;;;5075493;28;37426;-86
2021/04/26 10:58:27;;;;;;;5.87;4.73;;;28.30;8.60;;;;;;5064380;28;38856;-86
2021/04/26 11:00:55;;;;;;;5.33;4.07;;;27.20;8.80;;;;;;5068295;28;40148;-85
2021/04/26 11:03:36;;;;;;;6.70;4.10;;;26.90;9.90;;;;;;5063379;28;38959;-85
2021/04/26 11:06:14;;;;;;;4.97;3.80;;;27.50;9.20;;;;;;5066120;28;38041;-85
2021/04/26 11:08:46;;;;;;;6.20;4.80;;;27.20;9.50;;;;;;5064960;28;37350;-85
2021/04/26 11:11:17;;;;;;;7.27;4.70;;;26.50;9.70;;;;;;5067349;28;39473;-84
2021/04/26 11:13:52;;;;;;;4.67;4.20;;;25.20;10.80;;;;;;5054378;28;37023;-86
2021/04/26 11:16:22;;;;;;;7.30;4.60;;;24.60;11.20;;;;;;5050983;28;35723;-84
2021/04/26 11:19:10;;;;;;;5.83;4.70;;;24.10;11.80;;;;;;5063646;28;38419;-85
2021/04/26 11:21:58;;;;;;;5.70;4.23;;;23.70;12.10;;;;;;5051578;28;37713;-85
2021/04/26 11:25:04;;;;;;;5.63;4.83;;;23.00;12.40;;;;;;5065992;28;39397;-85
2021/04/26 11:27:39;;;;;;;5.03;4.07;;;21.60;12.80;;;;;;5064161;28;36992;-85
2021/04/26 11:30:27;;;;;;;14.77;5.33;;;20.80;12.90;;;;;;5061945;28;39531;-84
2021/04/26 11:33:02;;;;;;;5.63;3.90;;;19.90;13.60;;;;;;5067411;28;40223;-85
2021/04/26 11:35:31;;;;;;;8.27;4.47;;;19.60;14.00;;;;;;5065151;28;37794;-85
2021/04/26 11:37:58;;;;;;;10.50;5.57;;;19.40;14.30;;;;;;5063469;28;37199;-86
2021/04/26 11:40:27;;;;;;;5.80;4.50;;;19.40;15.00;;;;;;5045168;28;37785;-85
2021/04/26 11:43:05;;;;;;;4.47;3.83;;;19.30;14.10;;;;;;5061962;28;39083;-86
2021/04/26 11:45:35;;;;;;;6.73;4.40;;;19.00;14.90;;;;;;5039898;28;36988;-86
2021/04/26 11:48:02;;;;;;;7.03;4.80;;;18.70;14.40;;;;;;5053002;28;35923;-86
2021/04/26 11:50:29;;;;;;;4.50;3.53;;;18.50;14.70;;;;;;5060188;28;39234;-86
2021/04/26 11:52:57;;;;;;;6.77;3.63;;;18.40;15.00;;;;;;5064168;28;39285;-86
2021/04/26 11:55:27;;;;;;;6.77;4.10;;;18.40;15.10;;;;;;5068370;28;38397;-85
2021/04/26 11:57:58;;;;;;;52.20;7.53;;;18.20;15.40;;;;;;5050194;28;36489;-86
2021/04/26 12:00:29;;;;;;;6.93;4.27;;;17.80;16.10;;;;;;5067769;28;39494;-85
2021/04/26 12:03:03;;;;;;;4.77;3.90;;;17.50;15.90;;;;;;5073785;28;39257;-86
2021/04/26 12:05:31;;;;;;;5.77;4.20;;;17.30;16.30;;;;;;5051250;28;37174;-86
2021/04/26 12:07:58;;;;;;;5.17;4.67;;;17.50;15.90;;;;;;5071956;28;37111;-86
2021/04/26 12:10:29;;;;;;;5.53;3.90;;;17.50;16.10;;;;;;5069681;28;40742;-85
2021/04/26 12:13:00;;;;;;;6.83;4.13;;;17.40;16.80;;;;;;5042116;28;37796;-84
2021/04/26 12:15:29;;;;;;;4.90;4.00;;;17.40;15.90;;;;;;5049886;28;38580;-84
2021/04/26 12:17:58;;;;;;;5.27;4.43;;;17.40;16.20;;;;;;5064579;28;38012;-84
2021/04/26 12:20:29;;;;;;;5.60;4.23;;;17.50;16.80;;;;;;5076471;28;40192;-86
2021/04/26 12:22:58;;;;;;;6.60;4.70;;;17.40;16.40;;;;;;5060437;28;40884;-86
2021/04/26 12:25:28;;;;;;;5.63;4.33;;;17.30;16.90;;;;;;5053235;28;37054;-86
2021/04/26 12:28:00;;;;;;;7.47;4.50;;;17.40;16.40;;;;;;5067198;28;37739;-85
2021/04/26 12:30:36;;;;;;;6.07;3.80;;;17.50;17.20;;;;;;5064976;28;38229;-85
2021/04/26 12:33:03;;;;;;;5.93;3.83;;;17.70;16.30;;;;;;5044266;28;38710;-87
2021/04/26 12:35:34;;;;;;;5.10;4.13;;;17.70;15.80;;;;;;5071557;28;38602;-87
2021/04/26 12:38:01;;;;;;;5.70;3.80;;;17.70;16.20;;;;;;5053764;28;37107;-85
2021/04/26 12:40:32;;;;;;;4.67;4.23;;;17.60;16.30;;;;;;5070362;28;39443;-89
2021/04/26 12:43:06;;;;;;;5.90;4.43;;;17.50;15.90;;;;;;5071239;28;39230;-84
2021/04/26 12:45:38;;;;;;;4.97;4.47;;;17.40;16.40;;;;;;5069215;28;38804;-84
2021/04/26 12:48:06;;;;;;;5.43;4.50;;;17.20;16.10;;;;;;5077880;28;36822;-84
2021/04/26 12:50:37;;;;;;;5.77;3.97;;;17.30;16.70;;;;;;5083286;28;39999;-83
2021/04/26 12:53:16;;;;;;;5.00;3.90;;;17.50;17.10;;;;;;5050993;28;37337;-84
2021/04/26 12:55:47;;;;;;;5.93;4.37;;;17.60;16.70;;;;;;5083768;28;38271;-85
2021/04/26 12:58:16;;;;;;;4.87;3.70;;;17.80;17.00;;;;;;5061483;28;35999;-84
2021/04/26 13:00:52;;;;;;;12.20;3.97;;;17.70;17.40;;;;;;5076185;28;38539;-87
2021/04/26 13:03:25;;;;;;;5.20;4.03;;;17.70;17.00;;;;;;5064032;28;39391;-86
2021/04/26 13:05:56;;;;;;;4.40;4.00;;;17.60;16.30;;;;;;5069371;28;38317;-86
2021/04/26 13:08:26;;;;;;;4.57;4.13;;;17.50;15.80;;;;;;5052698;28;36823;-87
2021/04/26 13:10:54;;;;;;;4.10;3.70;;;17.50;15.70;;;;;;5061701;28;38832;-84
2021/04/26 13:13:23;;;;;;;7.27;4.60;;;17.60;16.90;;;;;;5073630;28;40001;-84
2021/04/26 13:15:51;;;;;;;5.47;4.43;;;17.70;16.60;;;;;;5072336;28;38172;-87
2021/04/26 13:18:20;;;;;;;7.70;4.13;;;17.80;17.20;;;;;;5048999;28;35956;-86